Time;durP1;ratioP1;P1;durP2;ratioP2;P2;SDS_P1;SDS_P2;PMS_P1;PMS_P2;Temp;Humidity;BMP_temperature;BMP_pressure;BME280_temperature;BME280_humidity;BME280_pressure;Samples;Min_cycle;Max_cycle;Signal;HPM_P1;HPM_P2
2021/10/24 00:00:48;;;;;;;15.70;6.32;;;;;;;;;;5090292;28;20454;-56
2021/10/24 00:03:14;;;;;;;19.25;5.75;;;;;;;;;;5089939;28;20412;-56
2021/10/24 00:05:41;;;;;;;20.70;5.53;;;;;;;;;;5090187;28;20158;-56
2021/10/24 00:08:07;;;;;;;16.80;6.70;;;;;;;;;;5091212;28;20088;-56
2021/10/24 00:10:33;;;;;;;20.35;8.43;;;;;;;;;;5090828;28;20039;-56
2021/10/24 00:13:00;;;;;;;23.05;7.55;;;;;;;;;;5090124;28;20072;-56
2021/10/24 00:15:26;;;;;;;19.60;6.63;;;;;;;;;;5090418;28;20052;-56
2021/10/24 00:17:52;;;;;;;21.58;6.60;;;;;;;;;;5088137;28;20063;-56
2021/10/24 00:20:19;;;;;;;25.45;7.25;;;;;;;;;;5090265;28;20098;-56
2021/10/24 00:22:45;;;;;;;19.02;8.48;;;;;;;;;;5090354;28;20048;-56
2021/10/24 00:25:11;;;;;;;19.00;5.97;;;;;;;;;;5088649;28;20044;-56
2021/10/24 00:27:38;;;;;;;22.50;6.68;;;;;;;;;;5089922;28;20517;-56
2021/10/24 00:30:06;;;;;;;17.33;6.53;;;;;;;;;;5088683;28;20522;-56
2021/10/24 00:32:32;;;;;;;22.50;6.35;;;;;;;;;;5071442;28;20642;-56
2021/10/24 00:34:58;;;;;;;24.40;7.82;;;;;;;;;;5091711;28;20119;-56
2021/10/24 00:37:25;;;;;;;16.63;6.43;;;;;;;;;;5089369;28;20040;-56
2021/10/24 00:39:51;;;;;;;20.38;6.05;;;;;;;;;;5089394;28;20044;-55
2021/10/24 00:42:18;;;;;;;17.98;6.43;;;;;;;;;;5090290;28;20074;-56
2021/10/24 00:44:44;;;;;;;17.02;6.53;;;;;;;;;;5089727;28;20510;-56
2021/10/24 00:47:12;;;;;;;20.77;7.15;;;;;;;;;;5089284;28;20050;-56
2021/10/24 00:49:38;;;;;;;13.18;6.68;;;;;;;;;;5091011;28;20079;-56
2021/10/24 00:52:05;;;;;;;25.00;6.95;;;;;;;;;;5090449;28;20521;-56
2021/10/24 00:54:33;;;;;;;13.45;6.80;;;;;;;;;;5090307;28;20044;-56
2021/10/24 00:57:00;;;;;;;11.05;5.90;;;;;;;;;;5089046;28;20536;-56
2021/10/24 00:59:27;;;;;;;14.27;6.28;;;;;;;;;;5089859;28;20069;-56
2021/10/24 01:01:54;;;;;;;15.95;5.88;;;;;;;;;;5092002;28;20056;-56
2021/10/24 01:04:21;;;;;;;14.45;5.75;;;;;;;;;;5090331;28;20119;-56
2021/10/24 01:06:50;;;;;;;16.60;5.82;;;;;;;;;;5093343;28;20124;-56
2021/10/24 01:09:18;;;;;;;17.05;7.00;;;;;;;;;;5093932;28;20495;-56
2021/10/24 01:11:45;;;;;;;14.70;6.38;;;;;;;;;;5092683;28;20056;-56
2021/10/24 01:14:12;;;;;;;15.85;6.60;;;;;;;;;;5093778;28;20404;-56
2021/10/24 01:16:41;;;;;;;26.65;7.32;;;;;;;;;;5093995;28;20120;-56
2021/10/24 01:19:10;;;;;;;17.45;7.43;;;;;;;;;;5092253;28;20060;-56
2021/10/24 01:21:36;;;;;;;19.48;6.30;;;;;;;;;;5092335;28;20044;-56
2021/10/24 01:24:03;;;;;;;14.63;6.15;;;;;;;;;;5092319;28;20047;-56
2021/10/24 01:26:30;;;;;;;18.35;7.10;;;;;;;;;;5091677;28;20532;-56
2021/10/24 01:28:57;;;;;;;16.60;7.20;;;;;;;;;;5094167;28;20040;-56
2021/10/24 01:31:24;;;;;;;12.73;6.40;;;;;;;;;;5090550;28;20204;-56
2021/10/24 01:33:52;;;;;;;16.33;6.93;;;;;;;;;;5091852;28;20063;-56
2021/10/24 01:36:18;;;;;;;26.00;7.65;;;;;;;;;;5090801;28;20079;-56
2021/10/24 01:38:46;;;;;;;20.13;7.70;;;;;;;;;;5091829;28;20037;-56
2021/10/24 01:41:12;;;;;;;19.02;7.57;;;;;;;;;;5092796;28;20138;-56
2021/10/24 01:43:39;;;;;;;18.02;7.00;;;;;;;;;;5093229;28;20044;-56
2021/10/24 01:46:06;;;;;;;19.38;6.93;;;;;;;;;;5092856;28;20436;-55
2021/10/24 01:48:32;;;;;;;15.30;5.63;;;;;;;;;;5091962;28;20321;-56
2021/10/24 01:50:58;;;;;;;15.25;7.93;;;;;;;;;;5093043;28;20502;-56
2021/10/24 01:53:26;;;;;;;24.73;7.07;;;;;;;;;;5092968;28;20074;-56
2021/10/24 01:55:53;;;;;;;19.02;7.22;;;;;;;;;;5093193;28;20063;-55
2021/10/24 01:58:20;;;;;;;17.02;7.82;;;;;;;;;;5091491;28;20559;-56
2021/10/24 02:00:48;;;;;;;20.73;8.00;;;;;;;;;;5091633;28;20064;-56
2021/10/24 02:03:15;;;;;;;25.95;8.18;;;;;;;;;;5083016;28;20503;-56
2021/10/24 02:06:14;;;;;;;12.07;5.32;;;;;;;;;;5061506;28;20058;-56
2021/10/24 02:08:40;;;;;;;21.13;6.60;;;;;;;;;;5055245;28;20108;-56
2021/10/24 02:11:06;;;;;;;19.70;6.63;;;;;;;;;;5052769;28;20053;-56
2021/10/24 02:13:32;;;;;;;22.50;8.32;;;;;;;;;;5054170;28;20074;-56
2021/10/24 02:16:05;;;;;;;20.88;7.20;;;;;;;;;;5051345;28;20085;-56
2021/10/24 02:18:34;;;;;;;20.05;5.90;;;;;;;;;;5042942;28;20416;-56
2021/10/24 02:21:00;;;;;;;20.60;6.95;;;;;;;;;;5071595;28;20048;-56
2021/10/24 02:23:27;;;;;;;26.17;7.35;;;;;;;;;;5071210;28;20076;-57
2021/10/24 02:25:58;;;;;;;20.55;7.35;;;;;;;;;;5055326;28;20044;-56
2021/10/24 02:28:24;;;;;;;17.23;8.23;;;;;;;;;;5051149;28;20499;-56
2021/10/24 02:30:51;;;;;;;18.50;7.35;;;;;;;;;;5041970;28;20076;-55
2021/10/24 02:33:47;;;;;;;24.13;7.68;;;;;;;;;;5059993;28;20169;-56
2021/10/24 02:36:18;;;;;;;22.35;7.75;;;;;;;;;;5054394;28;20562;-56
2021/10/24 02:38:51;;;;;;;25.13;7.38;;;;;;;;;;5053854;28;20044;-56
2021/10/24 02:41:17;;;;;;;26.13;8.00;;;;;;;;;;5060513;28;20052;-56
2021/10/24 02:43:45;;;;;;;29.90;7.82;;;;;;;;;;5090896;28;20063;-56
2021/10/24 02:46:12;;;;;;;18.55;7.47;;;;;;;;;;5090565;28;20482;-55
2021/10/24 02:48:38;;;;;;;19.90;6.97;;;;;;;;;;5090511;28;20097;-56
2021/10/24 02:51:05;;;;;;;15.00;7.03;;;;;;;;;;5090673;28;20068;-56
2021/10/24 02:53:32;;;;;;;15.85;6.97;;;;;;;;;;5074507;28;20063;-56
2021/10/24 02:56:03;;;;;;;16.15;7.13;;;;;;;;;;5091904;28;20635;-56
2021/10/24 02:58:30;;;;;;;30.48;7.93;;;;;;;;;;5120686;27;20074;-56
2021/10/24 03:00:57;;;;;;;18.10;7.80;;;;;;;;;;5090448;28;20046;-56
2021/10/24 03:03:23;;;;;;;22.65;7.93;;;;;;;;;;5091610;28;20434;-55
2021/10/24 03:05:49;;;;;;;12.90;6.25;;;;;;;;;;5090356;28;20083;-56
2021/10/24 03:08:16;;;;;;;21.77;7.57;;;;;;;;;;5090558;28;20548;-55
2021/10/24 03:10:43;;;;;;;22.95;8.15;;;;;;;;;;5110164;27;20411;-56
2021/10/24 03:13:10;;;;;;;16.42;8.10;;;;;;;;;;5086223;28;20510;-56
2021/10/24 03:15:36;;;;;;;16.13;7.57;;;;;;;;;;5089692;28;20119;-56
2021/10/24 03:18:03;;;;;;;28.33;8.57;;;;;;;;;;5087884;28;20050;-56
2021/10/24 03:20:30;;;;;;;24.40;7.03;;;;;;;;;;5089711;28;20107;-56
2021/10/24 03:22:56;;;;;;;16.30;6.50;;;;;;;;;;5092733;28;20044;-56
2021/10/24 03:25:22;;;;;;;18.30;7.70;;;;;;;;;;5088797;28;20051;-56
2021/10/24 03:27:49;;;;;;;14.82;7.22;;;;;;;;;;5089549;28;20040;-56
2021/10/24 03:30:17;;;;;;;16.25;7.25;;;;;;;;;;5087603;28;20071;-56
2021/10/24 03:32:43;;;;;;;19.58;7.80;;;;;;;;;;5087949;28;20484;-56
2021/10/24 03:35:10;;;;;;;29.10;8.40;;;;;;;;;;5090843;28;20554;-56
2021/10/24 03:37:36;;;;;;;25.73;9.30;;;;;;;;;;5092015;28;20422;-56
2021/10/24 03:40:03;;;;;;;21.30;8.55;;;;;;;;;;5090782;28;20073;-55
2021/10/24 03:42:29;;;;;;;23.63;9.90;;;;;;;;;;5087919;28;20063;-56
2021/10/24 03:44:56;;;;;;;22.20;8.43;;;;;;;;;;5089544;28;20036;-56
2021/10/24 03:47:22;;;;;;;38.10;10.88;;;;;;;;;;5089679;28;20556;-56
2021/10/24 03:49:49;;;;;;;25.13;11.02;;;;;;;;;;5091702;28;20071;-56
2021/10/24 03:52:16;;;;;;;26.90;11.15;;;;;;;;;;5087768;28;20066;-56
2021/10/24 03:54:42;;;;;;;28.00;10.18;;;;;;;;;;5089146;28;20125;-56
2021/10/24 03:57:09;;;;;;;27.73;9.27;;;;;;;;;;5089297;28;20144;-56
2021/10/24 03:59:37;;;;;;;31.50;10.00;;;;;;;;;;5087966;28;20067;-56
2021/10/24 04:02:04;;;;;;;29.40;11.18;;;;;;;;;;5091448;28;20051;-56
2021/10/24 04:04:31;;;;;;;30.80;11.15;;;;;;;;;;5089500;28;20048;-56
2021/10/24 04:06:57;;;;;;;27.00;10.63;;;;;;;;;;5089469;28;20050;-56
2021/10/24 04:09:25;;;;;;;27.92;8.82;;;;;;;;;;5087533;28;20118;-56
2021/10/24 04:11:51;;;;;;;24.33;10.85;;;;;;;;;;5087991;28;20068;-56
2021/10/24 04:14:18;;;;;;;30.65;11.73;;;;;;;;;;5090929;28;20059;-56
2021/10/24 04:16:44;;;;;;;34.38;11.63;;;;;;;;;;5089386;28;20047;-56
2021/10/24 04:19:25;;;;;;;37.42;12.63;;;;;;;;;;5089025;28;20063;-56
2021/10/24 04:21:52;;;;;;;37.28;11.57;;;;;;;;;;5089357;28;20496;-56
2021/10/24 04:24:18;;;;;;;31.70;11.20;;;;;;;;;;5087270;28;20051;-56
2021/10/24 04:26:45;;;;;;;32.78;11.27;;;;;;;;;;5089166;28;20079;-56
2021/10/24 04:29:11;;;;;;;30.58;12.15;;;;;;;;;;5090409;28;20118;-56
2021/10/24 04:31:40;;;;;;;32.78;12.75;;;;;;;;;;5091042;28;20044;-56
2021/10/24 04:34:07;;;;;;;36.70;13.18;;;;;;;;;;5090357;28;20076;-56
2021/10/24 04:36:35;;;;;;;39.15;13.35;;;;;;;;;;5069106;28;20040;-56
2021/10/24 04:39:01;;;;;;;25.13;9.57;;;;;;;;;;5080971;28;20047;-56
2021/10/24 04:41:29;;;;;;;39.53;13.38;;;;;;;;;;5093099;28;20468;-56
2021/10/24 04:43:55;;;;;;;37.60;13.10;;;;;;;;;;5096239;28;20044;-56
2021/10/24 04:46:22;;;;;;;16.85;8.32;;;;;;;;;;5093070;28;20040;-56
2021/10/24 04:48:49;;;;;;;40.42;14.45;;;;;;;;;;5094136;28;20123;-56
2021/10/24 04:51:15;;;;;;;24.98;10.57;;;;;;;;;;5091506;28;20078;-56
2021/10/24 04:53:42;;;;;;;55.30;15.13;;;;;;;;;;5091370;28;20067;-56
2021/10/24 04:56:08;;;;;;;42.15;13.68;;;;;;;;;;5093887;28;20083;-56
2021/10/24 04:58:35;;;;;;;43.17;13.63;;;;;;;;;;5093422;28;20105;-56
2021/10/24 05:01:03;;;;;;;44.13;13.95;;;;;;;;;;5091263;28;20051;-56
2021/10/24 05:03:30;;;;;;;44.25;14.20;;;;;;;;;;5091016;28;20479;-56
2021/10/24 05:05:57;;;;;;;37.13;13.60;;;;;;;;;;5092779;28;20051;-56
2021/10/24 05:08:23;;;;;;;50.15;16.15;;;;;;;;;;5093697;28;20055;-56
2021/10/24 05:10:49;;;;;;;60.85;17.52;;;;;;;;;;5094787;28;20119;-56
2021/10/24 05:13:16;;;;;;;53.05;17.58;;;;;;;;;;5092442;28;20063;-56
2021/10/24 05:15:42;;;;;;;63.53;18.48;;;;;;;;;;5092794;28;20043;-55
2021/10/24 05:18:10;;;;;;;50.45;17.23;;;;;;;;;;5092444;28;20071;-56
2021/10/24 05:20:37;;;;;;;48.13;16.77;;;;;;;;;;5092146;28;20052;-56
2021/10/24 05:23:05;;;;;;;56.75;19.23;;;;;;;;;;5094231;28;20048;-56
2021/10/24 05:25:35;;;;;;;79.57;23.08;;;;;;;;;;5088233;28;20060;-54
2021/10/24 05:28:03;;;;;;;33.28;11.32;;;;;;;;;;5087227;28;20050;-56
2021/10/24 05:30:29;;;;;;;51.03;14.73;;;;;;;;;;5090863;28;20071;-55
2021/10/24 05:32:55;;;;;;;48.35;14.57;;;;;;;;;;5092483;28;20134;-56
2021/10/24 05:35:23;;;;;;;39.15;13.00;;;;;;;;;;5091877;28;20515;-56
2021/10/24 05:37:50;;;;;;;43.95;16.20;;;;;;;;;;5094193;28;20416;-56
2021/10/24 05:40:17;;;;;;;42.38;16.42;;;;;;;;;;5091851;28;20090;-56
2021/10/24 05:42:49;;;;;;;20.35;8.10;;;;;;;;;;5092053;28;20043;-56
2021/10/24 05:45:16;;;;;;;50.42;19.58;;;;;;;;;;5093068;28;20048;-56
2021/10/24 05:47:42;;;;;;;52.97;13.93;;;;;;;;;;5091760;28;20056;-56
2021/10/24 05:50:18;;;;;;;50.38;15.98;;;;;;;;;;5092041;28;20047;-56
2021/10/24 05:52:44;;;;;;;36.38;13.30;;;;;;;;;;5091892;28;20071;-56
2021/10/24 05:55:11;;;;;;;42.08;14.82;;;;;;;;;;5091239;28;20062;-56
2021/10/24 05:57:37;;;;;;;28.10;12.93;;;;;;;;;;5093107;28;20059;-56
2021/10/24 06:00:24;;;;;;;40.28;12.75;;;;;;;;;;5092548;28;20445;-55
2021/10/24 06:03:08;;;;;;;30.75;13.45;;;;;;;;;;5091747;28;20499;-56
2021/10/24 06:06:06;;;;;;;47.47;14.40;;;;;;;;;;5092535;28;20052;-56
2021/10/24 06:08:32;;;;;;;54.22;14.82;;;;;;;;;;5076374;28;20048;-56
2021/10/24 06:11:19;;;;;;;32.00;12.90;;;;;;;;;;5093614;28;20040;-56
2021/10/24 06:13:48;;;;;;;47.22;13.48;;;;;;;;;;5091622;28;20561;-56
2021/10/24 06:16:15;;;;;;;14.52;7.78;;;;;;;;;;5091413;28;20072;-56
2021/10/24 06:18:41;;;;;;;45.97;17.92;;;;;;;;;;5090903;28;20658;-56
2021/10/24 06:21:08;;;;;;;42.65;20.10;;;;;;;;;;5090943;28;20134;-56
2021/10/24 06:23:34;;;;;;;42.38;17.15;;;;;;;;;;5089717;28;20449;-56
2021/10/24 06:26:01;;;;;;;40.67;16.20;;;;;;;;;;5088869;28;20051;-56
2021/10/24 06:28:28;;;;;;;67.75;22.60;;;;;;;;;;5089413;28;20082;-56
2021/10/24 06:30:54;;;;;;;47.78;21.08;;;;;;;;;;5092282;28;20033;-56
2021/10/24 06:33:44;;;;;;;52.30;19.48;;;;;;;;;;5091895;28;20091;-56
2021/10/24 06:36:37;;;;;;;29.35;11.05;;;;;;;;;;5052300;28;20040;-56
2021/10/24 06:39:15;;;;;;;31.70;12.32;;;;;;;;;;5035931;28;20171;-56
2021/10/24 06:41:41;;;;;;;35.22;14.30;;;;;;;;;;5036013;28;20079;-56
2021/10/24 06:44:30;;;;;;;39.63;15.02;;;;;;;;;;5035939;28;20044;-55
2021/10/24 06:47:15;;;;;;;43.17;16.67;;;;;;;;;;5051998;28;20135;-56
2021/10/24 06:50:08;;;;;;;34.22;14.60;;;;;;;;;;5031185;28;20045;-56
2021/10/24 06:52:54;;;;;;;33.70;12.10;;;;;;;;;;5031727;28;20053;-56
2021/10/24 06:55:38;;;;;;;33.88;13.98;;;;;;;;;;5032734;28;20084;-56
2021/10/24 06:58:23;;;;;;;39.13;16.88;;;;;;;;;;5032553;28;20060;-55
2021/10/24 07:01:08;;;;;;;17.15;8.55;;;;;;;;;;5031539;28;20081;-56
2021/10/24 07:04:10;;;;;;;28.63;12.48;;;;;;;;;;5031826;28;20049;-56
2021/10/24 07:06:54;;;;;;;46.15;15.48;;;;;;;;;;5012553;28;20125;-56
2021/10/24 07:09:31;;;;;;;30.05;13.35;;;;;;;;;;5023912;28;20060;-55
2021/10/24 07:11:58;;;;;;;22.10;9.15;;;;;;;;;;5032081;28;20084;-55
2021/10/24 07:14:25;;;;;;;46.17;17.05;;;;;;;;;;5014329;28;20196;-55
2021/10/24 07:16:52;;;;;;;47.17;16.98;;;;;;;;;;5012323;28;20037;-55
2021/10/24 07:19:19;;;;;;;39.38;16.38;;;;;;;;;;5011997;28;20122;-56
2021/10/24 07:21:45;;;;;;;50.25;16.98;;;;;;;;;;5011418;28;20750;-56
2021/10/24 07:24:32;;;;;;;41.00;16.67;;;;;;;;;;5020985;28;20077;-54
2021/10/24 07:26:58;;;;;;;43.70;17.83;;;;;;;;;;5046167;28;20154;-56
2021/10/24 07:29:25;;;;;;;39.55;14.75;;;;;;;;;;5085624;28;20044;-55
2021/10/24 07:31:52;;;;;;;44.33;16.02;;;;;;;;;;5077936;28;20072;-55
2021/10/24 07:34:45;;;;;;;42.97;17.77;;;;;;;;;;5087152;28;20075;-56
2021/10/24 07:37:12;;;;;;;25.65;12.02;;;;;;;;;;5073694;28;20075;-55
2021/10/24 07:39:38;;;;;;;38.30;17.40;;;;;;;;;;5074925;28;20048;-55
2021/10/24 07:42:05;;;;;;;39.67;16.80;;;;;;;;;;5076218;28;20578;-55
2021/10/24 07:44:32;;;;;;;37.75;14.10;;;;;;;;;;5109410;27;20106;-53
2021/10/24 07:46:59;;;;;;;24.88;10.70;;;;;;;;;;5078496;28;20036;-55
2021/10/24 07:49:25;;;;;;;27.38;11.73;;;;;;;;;;5090311;28;20056;-53
2021/10/24 07:51:52;;;;;;;32.22;15.40;;;;;;;;;;5085920;28;20507;-54
2021/10/24 07:54:18;;;;;;;35.13;14.15;;;;;;;;;;5086569;28;20084;-54
2021/10/24 07:56:44;;;;;;;41.42;16.17;;;;;;;;;;5085554;28;20048;-54
2021/10/24 07:59:23;;;;;;;32.40;12.05;;;;;;;;;;5086912;28;20071;-54
2021/10/24 08:01:49;;;;;;;32.17;15.00;;;;;;;;;;5088838;28;20048;-54
2021/10/24 08:04:17;;;;;;;35.72;14.50;;;;;;;;;;5083711;28;20120;-54
2021/10/24 08:06:43;;;;;;;27.25;12.45;;;;;;;;;;5091408;28;20441;-53
2021/10/24 08:09:13;;;;;;;36.92;14.27;;;;;;;;;;5088781;28;20056;-53
2021/10/24 08:11:44;;;;;;;31.63;13.10;;;;;;;;;;5091026;28;20044;-55
2021/10/24 08:14:11;;;;;;;27.75;13.18;;;;;;;;;;5093126;28;20508;-54
2021/10/24 08:16:38;;;;;;;36.05;12.50;;;;;;;;;;5089624;28;20079;-55
2021/10/24 08:19:07;;;;;;;50.30;15.20;;;;;;;;;;5087434;28;20067;-54
2021/10/24 08:21:41;;;;;;;32.67;12.25;;;;;;;;;;5084548;28;20052;-53
2021/10/24 08:24:07;;;;;;;35.85;14.80;;;;;;;;;;5087251;28;20515;-54
2021/10/24 08:26:41;;;;;;;35.00;16.60;;;;;;;;;;5077627;28;20123;-54
2021/10/24 08:29:08;;;;;;;39.58;15.32;;;;;;;;;;5088641;28;20044;-55
2021/10/24 08:32:10;;;;;;;42.97;16.75;;;;;;;;;;5073231;28;20080;-54
2021/10/24 08:34:38;;;;;;;42.67;16.02;;;;;;;;;;5087180;28;20075;-54
2021/10/24 08:37:05;;;;;;;35.67;16.23;;;;;;;;;;5088581;28;20127;-54
2021/10/24 08:39:32;;;;;;;41.38;15.98;;;;;;;;;;5091022;28;20083;-54
2021/10/24 08:41:58;;;;;;;40.40;15.52;;;;;;;;;;5085719;28;20488;-54
2021/10/24 08:44:25;;;;;;;61.60;20.55;;;;;;;;;;5084622;28;20071;-53
2021/10/24 08:46:51;;;;;;;40.55;15.73;;;;;;;;;;5088110;28;20071;-55
2021/10/24 08:49:18;;;;;;;41.75;16.05;;;;;;;;;;5087522;28;20065;-54
2021/10/24 08:51:45;;;;;;;39.63;15.05;;;;;;;;;;5087754;28;20135;-53
2021/10/24 08:54:11;;;;;;;54.72;15.90;;;;;;;;;;5085960;28;20086;-53
2021/10/24 08:56:39;;;;;;;40.67;16.60;;;;;;;;;;5084144;28;20036;-53
2021/10/24 08:59:07;;;;;;;41.00;14.85;;;;;;;;;;5086464;28;20044;-53
2021/10/24 09:01:34;;;;;;;33.00;16.35;;;;;;;;;;5090722;28;20080;-54
2021/10/24 09:04:08;;;;;;;33.45;14.25;;;;;;;;;;5085960;28;20551;-54
2021/10/24 09:06:43;;;;;;;39.53;14.65;;;;;;;;;;5090692;28;20051;-54
2021/10/24 09:09:11;;;;;;;43.22;15.70;;;;;;;;;;5083569;28;20090;-55
2021/10/24 09:11:40;;;;;;;36.90;16.55;;;;;;;;;;5081966;28;20067;-54
2021/10/24 09:14:06;;;;;;;38.22;16.20;;;;;;;;;;5086241;28;20462;-55
2021/10/24 09:16:51;;;;;;;36.72;14.35;;;;;;;;;;5122722;27;20059;-55
2021/10/24 09:19:18;;;;;;;35.55;15.38;;;;;;;;;;5087035;28;20083;-54
2021/10/24 09:21:44;;;;;;;39.00;15.80;;;;;;;;;;5087440;28;20046;-55
2021/10/24 09:24:12;;;;;;;41.28;17.13;;;;;;;;;;5084382;28;20048;-54
2021/10/24 09:26:40;;;;;;;47.65;18.23;;;;;;;;;;5082876;28;20051;-55
2021/10/24 09:29:08;;;;;;;37.53;15.88;;;;;;;;;;5086365;28;20551;-56
2021/10/24 09:31:35;;;;;;;35.55;15.48;;;;;;;;;;5078570;28;20036;-54
2021/10/24 09:34:15;;;;;;;33.88;14.52;;;;;;;;;;5072782;28;20090;-56
2021/10/24 09:36:48;;;;;;;30.02;14.75;;;;;;;;;;5090330;28;20040;-55
2021/10/24 09:39:47;;;;;;;32.10;13.30;;;;;;;;;;5077430;28;20076;-55
2021/10/24 09:42:17;;;;;;;32.03;15.18;;;;;;;;;;5094330;28;20055;-55
2021/10/24 09:45:00;;;;;;;33.67;13.52;;;;;;;;;;5092090;28;20044;-55
2021/10/24 09:47:27;;;;;;;30.50;13.70;;;;;;;;;;5090980;28;20052;-55
2021/10/24 09:49:53;;;;;;;30.33;14.27;;;;;;;;;;5092530;28;20040;-55
2021/10/24 09:52:31;;;;;;;36.95;14.68;;;;;;;;;;5092244;28;20043;-55
2021/10/24 09:55:00;;;;;;;37.50;13.80;;;;;;;;;;5090757;28;20067;-56
2021/10/24 09:57:26;;;;;;;31.08;14.38;;;;;;;;;;5093817;28;20054;-55
2021/10/24 09:59:53;;;;;;;38.72;15.18;;;;;;;;;;5092171;28;20048;-56
2021/10/24 10:02:20;;;;;;;36.85;14.85;;;;;;;;;;5090024;28;20583;-56
2021/10/24 10:04:47;;;;;;;37.65;15.98;;;;;;;;;;5090408;28;20082;-55
2021/10/24 10:07:17;;;;;;;31.67;15.45;;;;;;;;;;5092341;28;20052;-55
2021/10/24 10:09:44;;;;;;;39.28;15.63;;;;;;;;;;5092709;28;20067;-56
2021/10/24 10:12:12;;;;;;;26.05;12.68;;;;;;;;;;5092918;28;20054;-56
2021/10/24 10:14:40;;;;;;;37.35;13.07;;;;;;;;;;5091619;28;20046;-56
2021/10/24 10:17:24;;;;;;;26.30;12.23;;;;;;;;;;5091769;28;20503;-55
2021/10/24 10:19:51;;;;;;;26.60;12.98;;;;;;;;;;5091749;28;20052;-56
2021/10/24 10:22:26;;;;;;;38.90;15.40;;;;;;;;;;5090283;28;20044;-56
2021/10/24 10:24:52;;;;;;;;;;;;;;;;;;5092020;28;20055;-55
2021/10/24 10:27:28;;;;;;;30.63;14.57;;;;;;;;;;5093689;28;19947;-55
2021/10/24 10:29:56;;;;;;;33.10;14.20;;;;;;;;;;5091367;28;20050;-56
2021/10/24 10:32:32;;;;;;;37.42;16.17;;;;;;;;;;5091302;28;20134;-57
2021/10/24 10:34:58;;;;;;;37.63;17.33;;;;;;;;;;5089940;28;20055;-56
2021/10/24 10:37:40;;;;;;;37.80;16.10;;;;;;;;;;5091507;28;20086;-56
2021/10/24 10:40:12;;;;;;;22.85;11.52;;;;;;;;;;5080916;28;20060;-55
2021/10/24 10:42:42;;;;;;;27.70;13.85;;;;;;;;;;5092501;28;20471;-57
2021/10/24 10:45:14;;;;;;;30.52;13.02;;;;;;;;;;5092514;28;20055;-56
2021/10/24 10:47:57;;;;;;;30.60;14.02;;;;;;;;;;5091288;28;20451;-56
2021/10/24 10:50:27;;;;;;;22.83;12.80;;;;;;;;;;5091205;28;20058;-56
2021/10/24 10:52:54;;;;;;;34.85;14.63;;;;;;;;;;5090769;28;20082;-56
2021/10/24 10:55:20;;;;;;;34.70;14.90;;;;;;;;;;5090483;28;20129;-56
2021/10/24 10:57:47;;;;;;;27.02;12.27;;;;;;;;;;5091671;28;20055;-56
2021/10/24 11:00:33;;;;;;;30.58;14.50;;;;;;;;;;5092543;28;20139;-56
2021/10/24 11:02:59;;;;;;;35.92;14.73;;;;;;;;;;5090558;28;20052;-56
2021/10/24 11:05:41;;;;;;;31.95;13.70;;;;;;;;;;5089955;28;20508;-56
2021/10/24 11:08:26;;;;;;;27.92;12.68;;;;;;;;;;5090663;28;20059;-56
2021/10/24 11:10:52;;;;;;;24.35;12.32;;;;;;;;;;5090206;28;20518;-55
2021/10/24 11:13:31;;;;;;;27.27;12.13;;;;;;;;;;5090333;28;20047;-56
2021/10/24 11:16:17;;;;;;;20.95;11.77;;;;;;;;;;5091057;28;20075;-56
2021/10/24 11:18:43;;;;;;;20.52;11.68;;;;;;;;;;5088701;28;20408;-56
2021/10/24 11:21:11;;;;;;;22.83;11.27;;;;;;;;;;5091801;28;20144;-57
2021/10/24 11:23:37;;;;;;;26.70;12.35;;;;;;;;;;5088326;28;20051;-56
2021/10/24 11:26:06;;;;;;;23.33;11.93;;;;;;;;;;5082873;28;20048;-56
2021/10/24 11:28:32;;;;;;;16.77;9.60;;;;;;;;;;5090417;28;20121;-57
2021/10/24 11:31:01;;;;;;;24.42;11.02;;;;;;;;;;5090318;28;20132;-58
2021/10/24 11:33:28;;;;;;;21.13;10.57;;;;;;;;;;5092314;28;20055;-57
2021/10/24 11:35:55;;;;;;;19.40;11.00;;;;;;;;;;5090097;28;20075;-56
2021/10/24 11:38:25;;;;;;;22.02;10.60;;;;;;;;;;5090517;28;20047;-57
2021/10/24 11:40:51;;;;;;;18.25;11.05;;;;;;;;;;5090246;28;20503;-58
2021/10/24 11:43:19;;;;;;;17.98;10.13;;;;;;;;;;5090023;28;20067;-56
2021/10/24 11:45:47;;;;;;;18.05;10.43;;;;;;;;;;5088622;28;20050;-57
2021/10/24 11:48:24;;;;;;;19.95;10.80;;;;;;;;;;5089759;28;20485;-57
2021/10/24 11:50:53;;;;;;;21.52;12.55;;;;;;;;;;5090169;28;20119;-56
2021/10/24 11:53:23;;;;;;;17.27;9.50;;;;;;;;;;5088607;28;20066;-57
2021/10/24 11:55:53;;;;;;;17.80;9.98;;;;;;;;;;5086726;28;20119;-58
2021/10/24 11:58:34;;;;;;;18.42;10.23;;;;;;;;;;5087439;28;20076;-56
2021/10/24 12:01:16;;;;;;;16.48;9.52;;;;;;;;;;5089588;28;20439;-57
2021/10/24 12:03:45;;;;;;;21.15;11.45;;;;;;;;;;5087931;28;20092;-58
2021/10/24 12:06:12;;;;;;;18.25;9.93;;;;;;;;;;5091358;28;20568;-57
2021/10/24 12:08:45;;;;;;;17.02;9.80;;;;;;;;;;5089817;28;20182;-58
2021/10/24 12:11:16;;;;;;;14.98;8.05;;;;;;;;;;5089717;28;20535;-56
2021/10/24 12:13:42;;;;;;;17.23;8.82;;;;;;;;;;5089534;28;20404;-57
2021/10/24 12:16:28;;;;;;;17.25;8.60;;;;;;;;;;5087383;28;20160;-58
2021/10/24 12:19:35;;;;;;;19.40;9.23;;;;;;;;;;5072091;28;20128;-57
2021/10/24 12:22:04;;;;;;;14.30;8.00;;;;;;;;;;5049324;28;20215;-57
2021/10/24 12:24:50;;;;;;;14.05;8.20;;;;;;;;;;5048614;28;20077;-57
2021/10/24 12:27:27;;;;;;;16.73;8.65;;;;;;;;;;5047080;28;20068;-57
2021/10/24 12:29:55;;;;;;;15.57;9.45;;;;;;;;;;5050036;28;20121;-57
2021/10/24 12:32:21;;;;;;;14.65;7.95;;;;;;;;;;5050306;28;20076;-56
2021/10/24 12:35:17;;;;;;;16.63;9.77;;;;;;;;;;5049828;28;20132;-57
2021/10/24 12:37:45;;;;;;;16.17;9.00;;;;;;;;;;5037277;28;20080;-57
2021/10/24 12:40:15;;;;;;;14.82;8.75;;;;;;;;;;5050544;28;20130;-57
2021/10/24 12:42:44;;;;;;;19.98;9.50;;;;;;;;;;5049450;28;20049;-58
2021/10/24 12:45:17;;;;;;;17.83;8.90;;;;;;;;;;5051290;28;20076;-57
2021/10/24 12:47:54;;;;;;;16.52;8.52;;;;;;;;;;5050639;28;20551;-57
2021/10/24 12:50:33;;;;;;;19.65;9.30;;;;;;;;;;5048867;28;20171;-58
2021/10/24 12:53:00;;;;;;;14.75;8.65;;;;;;;;;;5069776;28;20049;-57
2021/10/24 12:55:27;;;;;;;16.48;8.05;;;;;;;;;;5079021;28;20525;-57
2021/10/24 12:57:53;;;;;;;11.75;7.57;;;;;;;;;;5087920;28;20055;-56
2021/10/24 13:00:20;;;;;;;14.82;8.65;;;;;;;;;;5079202;28;20040;-56
2021/10/24 13:02:46;;;;;;;14.75;7.70;;;;;;;;;;5085824;28;20127;-56
2021/10/24 13:05:12;;;;;;;13.23;8.13;;;;;;;;;;5086112;28;20056;-56
2021/10/24 13:07:39;;;;;;;13.23;8.02;;;;;;;;;;5090275;28;20040;-57
2021/10/24 13:10:05;;;;;;;15.98;8.48;;;;;;;;;;5082608;28;20577;-56
2021/10/24 13:12:32;;;;;;;14.85;8.43;;;;;;;;;;5075374;28;20404;-57
2021/10/24 13:14:58;;;;;;;16.17;8.82;;;;;;;;;;5078048;28;20052;-57
2021/10/24 13:17:25;;;;;;;12.52;8.10;;;;;;;;;;5079661;28;20087;-56
2021/10/24 13:19:51;;;;;;;18.52;9.98;;;;;;;;;;5087146;28;20056;-57
2021/10/24 13:25:04;;;;;;;12.23;7.72;;;;;;;;;;5089494;28;20056;-56
2021/10/24 13:27:31;;;;;;;17.48;8.98;;;;;;;;;;5088471;28;20058;-57
2021/10/24 13:29:57;;;;;;;12.07;7.57;;;;;;;;;;5084381;28;20071;-56
2021/10/24 13:32:24;;;;;;;15.95;7.78;;;;;;;;;;5086213;28;20131;-57
2021/10/24 13:34:50;;;;;;;13.73;7.97;;;;;;;;;;5085548;28;20492;-57
2021/10/24 13:37:16;;;;;;;14.73;7.35;;;;;;;;;;5088363;28;20051;-57
2021/10/24 13:39:42;;;;;;;10.38;6.93;;;;;;;;;;5088835;28;20052;-57
2021/10/24 13:42:10;;;;;;;11.57;6.85;;;;;;;;;;5087286;28;20434;-56
2021/10/24 13:44:37;;;;;;;11.20;7.10;;;;;;;;;;5086189;28;20385;-56
2021/10/24 13:47:03;;;;;;;16.92;6.95;;;;;;;;;;5087804;28;20063;-56
2021/10/24 13:49:29;;;;;;;12.15;6.60;;;;;;;;;;5089110;28;20040;-57
2021/10/24 13:51:56;;;;;;;11.00;7.00;;;;;;;;;;5091209;28;20052;-56
2021/10/24 13:54:22;;;;;;;11.73;6.55;;;;;;;;;;5088428;28;20179;-56
2021/10/24 13:56:48;;;;;;;14.18;8.48;;;;;;;;;;5088478;28;20098;-56
2021/10/24 13:59:15;;;;;;;14.30;7.55;;;;;;;;;;5078844;28;20521;-56
2021/10/24 14:01:41;;;;;;;11.40;6.65;;;;;;;;;;5086461;28;20527;-56
2021/10/24 14:04:09;;;;;;;16.80;8.32;;;;;;;;;;5086505;28;20081;-57
2021/10/24 14:06:35;;;;;;;15.50;7.80;;;;;;;;;;5088095;28;20044;-57
2021/10/24 14:09:03;;;;;;;14.13;8.52;;;;;;;;;;5087130;28;20051;-56
2021/10/24 14:11:29;;;;;;;15.45;7.60;;;;;;;;;;5079089;28;20048;-57
2021/10/24 14:13:56;;;;;;;15.25;9.75;;;;;;;;;;5080075;28;20403;-56
2021/10/24 14:16:23;;;;;;;13.73;6.65;;;;;;;;;;5089110;28;20125;-56
2021/10/24 14:18:50;;;;;;;11.55;7.15;;;;;;;;;;5075832;28;20047;-56
2021/10/24 14:21:19;;;;;;;11.98;7.10;;;;;;;;;;5077554;28;20044;-57
2021/10/24 14:23:45;;;;;;;14.80;7.18;;;;;;;;;;5077337;28;20143;-56
2021/10/24 14:26:12;;;;;;;9.20;6.40;;;;;;;;;;5077219;28;20044;-56
2021/10/24 14:28:38;;;;;;;12.55;7.18;;;;;;;;;;5077462;28;20446;-56
2021/10/24 14:31:05;;;;;;;15.43;8.35;;;;;;;;;;5073349;28;20080;-56
2021/10/24 14:33:32;;;;;;;12.55;7.03;;;;;;;;;;5077684;28;20058;-56
2021/10/24 14:35:59;;;;;;;11.73;7.13;;;;;;;;;;5077038;28;20044;-56
2021/10/24 14:38:25;;;;;;;14.60;6.88;;;;;;;;;;5078430;28;20076;-57
2021/10/24 14:40:52;;;;;;;11.55;6.53;;;;;;;;;;5075137;28;20044;-56